Coastal Guardian — MQJT3 — position and weather

sailwx.info

Track history (hours):
 
Tides and Currents Weather Stations Pressure Air Temp Water Temp Dewpoint Dewpoint Depression Visibility Wind Speed Wind Dir Waves Ship Positions

Oceanographic research ship Coastal Guardian (UK)

Detailed information on ship capabilities available from University of Delaware's Ocean Information Center.

Last reported at 2019-Aug-17 18:33 UTC. Time now 2019-Aug-24 08:55 UTC.
Position N 55°57' W 004°54'.

Length 16 m.

Type: Diving. MMSI: 235087897.

Date/timePositionNaut miles runAvg speedWind from/ knotsBaromVisibWave heightAir tempDewpointWater temp
2019-Aug-17 18:33N 55°57' W 004°54'0 7.8
2019-Aug-17 18:30N 55°57' W 004°54'7 6.7
2019-Aug-17 17:30N 55°51' W 005°01'  
2019-Aug-12 08:57N 55°53' W 005°03'3 6.2
2019-Aug-12 08:30N 55°51' W 004°60'3 6.5
2019-Aug-12 08:00N 55°54' W 004°56'3 6.8
2019-Aug-12 07:31N 55°57' W 004°54'  
2019-Aug-09 19:26N 55°56' W 004°54'3 6.3
2019-Aug-09 19:00N 55°53' W 004°54'3 6.2
2019-Aug-09 18:30N 55°50' W 004°54'1 0.4
2019-Aug-09 16:06N 55°49' W 004°54'1 6.1
2019-Aug-09 16:00N 55°49' W 004°54'3 6.8
2019-Aug-09 15:30N 55°53' W 004°55'  
Track history (hours):
 
Tides and Currents Weather Stations Pressure Air Temp Water Temp Dewpoint Dewpoint Depression Visibility Wind Speed Wind Dir Waves Ship Positions

Oceanographic research ship Coastal Guardian (UK)

Detailed information on ship capabilities available from University of Delaware's Ocean Information Center.

Last reported at 2019-Aug-17 18:33 UTC. Time now 2019-Aug-24 08:55 UTC.
Position N 55°57' W 004°54'.

Length 16 m.

Type: Diving. MMSI: 235087897.

Date/timePositionNaut miles runAvg speedWind from/ knotsBaromVisibWave heightAir tempDewpointWater temp
2019-Aug-17 18:33N 55°57' W 004°54'0 7.8
2019-Aug-17 18:30N 55°57' W 004°54'7 6.7
2019-Aug-17 17:30N 55°51' W 005°01'  
2019-Aug-12 08:57N 55°53' W 005°03'3 6.2
2019-Aug-12 08:30N 55°51' W 004°60'3 6.5
2019-Aug-12 08:00N 55°54' W 004°56'3 6.8
2019-Aug-12 07:31N 55°57' W 004°54'  
2019-Aug-09 19:26N 55°56' W 004°54'3 6.3
2019-Aug-09 19:00N 55°53' W 004°54'3 6.2
2019-Aug-09 18:30N 55°50' W 004°54'1 0.4
2019-Aug-09 16:06N 55°49' W 004°54'1 6.1
2019-Aug-09 16:00N 55°49' W 004°54'3 6.8
2019-Aug-09 15:30N 55°53' W 004°55'  

Dump ship's entire track history